Time;durP1;ratioP1;P1;durP2;ratioP2;P2;SDS_P1;SDS_P2;PMS_P1;PMS_P2;Temp;Humidity;BMP_temperature;BMP_pressure;BME280_temperature;BME280_humidity;BME280_pressure;Samples;Min_cycle;Max_cycle;Signal;HPM_P1;HPM_P2
2022/05/21 00:02:08;;;;;;;;;;;;;;;9.59;80.78;101904.28;6039333;23;19917;-70
2022/05/21 00:04:37;;;;;;;;;;;;;;;9.60;81.29;101906.03;6038302;23;19924;-70
2022/05/21 00:07:03;;;;;;;;;;;;;;;9.63;81.14;101909.53;6063619;23;20363;-71
2022/05/21 00:09:28;;;;;;;;;;;;;;;9.67;80.44;101908.72;6063760;23;19917;-74
2022/05/21 00:11:54;;;;;;;;;;;;;;;9.69;81.19;101906.97;6064609;23;20244;-77
2022/05/21 00:14:20;;;;;;;;;;;;;;;9.72;81.24;101906.13;6040327;23;19913;-74
2022/05/21 00:16:46;;;;;;;;;;;;;;;9.74;81.03;101908.75;6040245;23;19952;-75
2022/05/21 00:19:11;;;;;;;;;;;;;;;9.76;81.16;101901.81;6038888;23;20313;-77
2022/05/21 00:21:37;;;;;;;;;;;;;;;9.81;80.64;101908.84;6040045;23;19918;-75
2022/05/21 00:24:02;;;;;;;;;;;;;;;9.85;80.65;101907.97;6063358;23;19916;-76
2022/05/21 00:26:27;;;;;;;;;;;;;;;9.91;80.97;101901.91;6040759;23;20332;-76
2022/05/21 00:28:53;;;;;;;;;;;;;;;9.96;80.20;101907.22;6039290;23;19925;-74
2022/05/21 00:31:18;;;;;;;;;;;;;;;10.00;79.89;101909.00;6039412;23;19917;-74
2022/05/21 00:33:44;;;;;;;;;;;;;;;10.02;80.70;101910.72;6062512;23;19913;-75
2022/05/21 00:36:10;;;;;;;;;;;;;;;10.05;80.27;101913.38;6038283;23;19944;-74
2022/05/21 00:38:36;;;;;;;;;;;;;;;10.08;81.08;101903.81;6039350;23;19917;-76
2022/05/21 00:41:02;;;;;;;;;;;;;;;10.09;80.60;101905.56;6063325;23;19920;-75
2022/05/21 00:43:36;;;;;;;;;;;;;;;10.10;80.40;101909.91;6039588;23;20007;-75
2022/05/21 00:46:02;;;;;;;;;;;;;;;10.13;80.65;101909.94;6062802;23;20317;-77
2022/05/21 00:48:27;;;;;;;;;;;;;;;10.18;80.41;101910.84;6063393;23;19944;-76
2022/05/21 00:50:52;;;;;;;;;;;;;;;10.21;80.30;101905.63;6037444;23;19984;-76
2022/05/21 00:53:19;;;;;;;;;;;;;;;10.25;80.05;101907.41;6038953;23;19920;-75
2022/05/21 00:55:44;;;;;;;;;;;;;;;10.29;79.98;101917.03;6062575;23;19913;-75
2022/05/21 01:00:56;;;;;;;;;;;;;;;10.38;79.30;101908.41;6090862;23;19955;-78
2022/05/21 01:03:23;;;;;;;;;;;;;;;10.42;80.02;101917.16;6040783;23;19999;-78
2022/05/21 01:05:48;;;;;;;;;;;;;;;10.46;79.75;101911.06;6063023;23;19913;-78
2022/05/21 01:08:14;;;;;;;;;;;;;;;10.50;79.80;101920.69;6064476;23;20332;-77
2022/05/21 01:10:43;;;;;;;;;;;;;;;10.53;79.50;101904.97;6041230;23;19951;-77
2022/05/21 01:13:13;;;;;;;;;;;;;;;10.56;79.67;101921.63;6064987;23;19987;-75
2022/05/21 01:15:40;;;;;;;;;;;;;;;10.59;79.44;101918.13;6065666;23;19940;-75
2022/05/21 01:18:07;;;;;;;;;;;;;;;10.62;79.84;101907.66;6065230;23;20324;-77
2022/05/21 01:20:44;;;;;;;;;;;;;;;10.65;79.79;101905.06;6041628;23;19909;-77
2022/05/21 01:23:10;;;;;;;;;;;;;;;10.69;79.53;101908.59;6065516;23;19920;-76
2022/05/21 01:25:38;;;;;;;;;;;;;;;10.69;79.76;101908.59;6042104;23;20023;-78
2022/05/21 01:28:03;;;;;;;;;;;;;;;10.71;79.30;101897.22;6042372;23;19921;-78
2022/05/21 01:30:49;;;;;;;;;;;;;;;10.74;79.32;101902.47;6064336;23;19913;-75
2022/05/21 01:33:16;;;;;;;;;;;;;;;10.78;79.28;101907.75;6064043;23;19988;-74
2022/05/21 01:35:42;;;;;;;;;;;;;;;10.80;78.90;101906.00;6063592;23;19936;-78
2022/05/21 01:38:10;;;;;;;;;;;;;;;10.81;78.85;101894.66;6064763;23;19913;-76
2022/05/21 01:40:36;;;;;;;;;;;;;;;10.83;78.97;101901.66;6064108;23;19913;-74
2022/05/21 01:45:46;;;;;;;;;;;;;;;10.85;78.72;101899.03;6089935;23;20314;-76
2022/05/21 01:48:11;;;;;;;;;;;;;;;10.84;79.24;101898.13;6040887;23;21855;-76
2022/05/21 01:50:38;;;;;;;;;;;;;;;10.86;79.04;101896.41;6042382;23;19913;-74
2022/05/21 01:53:04;;;;;;;;;;;;;;;10.87;79.14;101899.91;6067985;23;19920;-76
2022/05/21 01:55:29;;;;;;;;;;;;;;;10.86;78.66;101899.03;6067130;23;19928;-76
2022/05/21 01:57:54;;;;;;;;;;;;;;;10.88;78.69;101902.53;6043655;23;19925;-77
2022/05/21 02:00:20;;;;;;;;;;;;;;;10.88;78.57;101904.28;6066108;23;19972;-77
2022/05/21 02:02:45;;;;;;;;;;;;;;;10.89;78.88;101901.66;6066262;23;19993;-77
2022/05/21 02:05:11;;;;;;;;;;;;;;;10.91;78.79;101897.28;6066293;23;19913;-77
2022/05/21 02:07:36;;;;;;;;;;;;;;;10.91;78.80;101899.06;6067780;23;20011;-75
2022/05/21 02:10:03;;;;;;;;;;;;;;;10.91;78.57;101894.66;6043932;23;20020;-76
2022/05/21 02:12:28;;;;;;;;;;;;;;;10.91;78.99;101897.28;6043971;23;20292;-74
2022/05/21 02:14:56;;;;;;;;;;;;;;;10.92;79.25;101895.56;6044380;23;20289;-76
2022/05/21 02:17:22;;;;;;;;;;;;;;;10.91;78.91;101901.66;6044828;23;19968;-78
2022/05/21 02:19:47;;;;;;;;;;;;;;;10.94;78.84;101904.31;6043929;23;19913;-77
2022/05/21 02:22:13;;;;;;;;;;;;;;;10.94;78.91;101901.69;6068144;23;19946;-78
2022/05/21 02:24:38;;;;;;;;;;;;;;;10.96;79.34;101913.06;6044572;23;19909;-74
2022/05/21 02:27:04;;;;;;;;;;;;;;;10.96;79.29;101897.34;6068371;23;20342;-75
2022/05/21 02:29:29;;;;;;;;;;;;;;;10.97;79.39;101912.19;6044557;23;19929;-77
2022/05/21 02:31:54;;;;;;;;;;;;;;;10.98;79.20;101906.06;6068258;23;20256;-77
2022/05/21 02:34:20;;;;;;;;;;;;;;;10.98;79.42;101906.06;6043071;23;20353;-75
2022/05/21 02:39:29;;;;;;;;;;;;;;;10.99;78.98;101899.97;6071977;23;19928;-76
2022/05/21 02:41:56;;;;;;;;;;;;;;;11.00;78.89;101890.34;6043994;23;19917;-76
2022/05/21 02:44:22;;;;;;;;;;;;;;;10.97;78.64;101885.94;6067434;23;19909;-77
2022/05/21 02:46:47;;;;;;;;;;;;;;;10.97;78.80;101893.81;6044553;23;20252;-78
2022/05/21 02:49:13;;;;;;;;;;;;;;;10.98;78.59;101892.09;6042754;23;19971;-77
2022/05/21 02:51:38;;;;;;;;;;;;;;;10.97;78.60;101888.56;6068360;23;19914;-77
2022/05/21 02:54:06;;;;;;;;;;;;;;;10.98;79.49;101890.34;6043670;23;19917;-78
2022/05/21 02:56:33;;;;;;;;;;;;;;;10.98;78.72;101899.97;6068261;23;19988;-76
2022/05/21 02:58:58;;;;;;;;;;;;;;;10.98;78.43;101894.72;6067223;23;19959;-79
2022/05/21 03:01:23;;;;;;;;;;;;;;;10.97;78.80;101899.06;6043785;23;19918;-76
2022/05/21 03:03:49;;;;;;;;;;;;;;;10.98;79.05;101900.81;6043192;23;20301;-76
2022/05/21 03:06:14;;;;;;;;;;;;;;;10.98;79.02;101905.22;6041885;23;20297;-77
2022/05/21 03:11:23;;;;;;;;;;;;;;;10.99;78.76;101899.97;6071458;23;19920;-74
2022/05/21 03:13:49;;;;;;;;;;;;;;;10.98;79.13;101898.19;6043477;23;19980;-75
2022/05/21 03:16:14;;;;;;;;;;;;;;;10.99;78.48;101899.97;6043174;23;19992;-75
2022/05/21 03:18:39;;;;;;;;;;;;;;;11.00;79.04;101903.44;6067375;23;19916;-77
2022/05/21 03:21:05;;;;;;;;;;;;;;;11.00;78.98;101904.31;6065740;23;20008;-75
2022/05/21 03:23:30;;;;;;;;;;;;;;;11.00;79.03;101904.31;6043458;23;19917;-74
2022/05/21 03:25:56;;;;;;;;;;;;;;;11.01;78.78;101899.97;6043673;23;19918;-78
2022/05/21 03:28:21;;;;;;;;;;;;;;;11.01;78.71;101899.97;6067404;23;19923;-77
2022/05/21 03:30:47;;;;;;;;;;;;;;;11.00;79.50;101896.44;6043538;23;20328;-77
2022/05/21 03:33:12;;;;;;;;;;;;;;;11.01;79.31;101900.84;6066954;23;19921;-75
2022/05/21 03:35:38;;;;;;;;;;;;;;;11.01;78.81;101903.44;6042516;23;20016;-78
2022/05/21 03:38:04;;;;;;;;;;;;;;;11.01;79.17;101906.06;6044080;23;19917;-76
2022/05/21 03:40:31;;;;;;;;;;;;;;;11.02;79.12;101902.59;6042221;23;20243;-77
2022/05/21 03:42:56;;;;;;;;;;;;;;;11.03;79.43;101906.06;6067421;23;19988;-77
2022/05/21 03:45:25;;;;;;;;;;;;;;;11.03;79.29;101913.94;6066540;23;19937;-77
2022/05/21 03:47:51;;;;;;;;;;;;;;;11.04;79.21;101910.47;6044705;23;20301;-76
2022/05/21 03:50:18;;;;;;;;;;;;;;;11.04;78.98;101913.94;6066143;23;19924;-75
2022/05/21 03:52:43;;;;;;;;;;;;;;;11.03;78.95;101912.22;6067586;23;19933;-76
2022/05/21 03:55:09;;;;;;;;;;;;;;;11.04;78.94;101916.56;6042265;23;19999;-76
2022/05/21 03:57:34;;;;;;;;;;;;;;;11.05;79.27;101918.34;6043290;23;19920;-77
2022/05/21 04:00:00;;;;;;;;;;;;;;;11.05;79.42;101915.72;6067157;23;20287;-77
2022/05/21 04:02:26;;;;;;;;;;;;;;;11.06;79.14;101914.84;6066520;23;19921;-76
2022/05/21 04:04:53;;;;;;;;;;;;;;;11.07;78.69;101913.97;6065102;23;19913;-74
2022/05/21 04:07:19;;;;;;;;;;;;;;;11.08;79.10;101918.34;6066730;23;19909;-77
2022/05/21 04:09:44;;;;;;;;;;;;;;;11.11;78.68;101924.50;6042768;23;19940;-75
2022/05/21 04:12:10;;;;;;;;;;;;;;;11.11;79.25;101922.72;6040636;23;20263;-75
2022/05/21 04:14:36;;;;;;;;;;;;;;;11.11;78.99;101919.25;6039987;23;19921;-75
2022/05/21 04:17:12;;;;;;;;;;;;;;;11.11;79.27;101925.34;6064945;23;19913;-77
2022/05/21 04:19:41;;;;;;;;;;;;;;;11.12;79.48;101926.22;6064743;23;19909;-77
2022/05/21 04:22:09;;;;;;;;;;;;;;;11.13;79.25;101941.97;6043043;23;19921;-76
2022/05/21 04:24:35;;;;;;;;;;;;;;;11.15;78.98;101941.97;6065286;23;19910;-78
2022/05/21 04:27:01;;;;;;;;;;;;;;;11.18;79.42;101934.13;6066690;23;19909;-77
2022/05/21 04:29:32;;;;;;;;;;;;;;;11.17;79.42;101935.84;6042325;23;19928;-77
2022/05/21 04:31:58;;;;;;;;;;;;;;;11.20;79.47;101942.88;6041903;23;19924;-76
2022/05/21 04:34:25;;;;;;;;;;;;;;;11.24;79.31;101940.25;6065751;23;19913;-75
2022/05/21 04:36:50;;;;;;;;;;;;;;;11.31;79.00;101951.66;6044695;23;20007;-78
2022/05/21 04:39:19;;;;;;;;;;;;;;;11.37;79.22;101956.03;6067012;23;20326;-76
2022/05/21 04:41:45;;;;;;;;;;;;;;;11.43;79.21;101950.81;6044435;23;19965;-79
2022/05/21 04:44:12;;;;;;;;;;;;;;;11.48;79.39;101962.19;6068753;23;19939;-76
2022/05/21 04:46:38;;;;;;;;;;;;;;;11.54;79.37;101958.72;6043471;23;19927;-77
2022/05/21 04:49:04;;;;;;;;;;;;;;;11.57;79.33;101950.84;6067714;23;19913;-76
2022/05/21 04:51:30;;;;;;;;;;;;;;;11.59;79.49;101956.97;6043014;23;19924;-76
2022/05/21 04:53:56;;;;;;;;;;;;;;;11.61;79.02;101960.47;6068947;23;19918;-76
2022/05/21 04:56:22;;;;;;;;;;;;;;;11.64;78.98;101965.72;6068217;23;20297;-78
2022/05/21 04:58:48;;;;;;;;;;;;;;;11.68;79.13;101956.09;6068290;23;19919;-76
2022/05/21 05:01:13;;;;;;;;;;;;;;;11.70;78.66;101957.84;6044340;23;20107;-77
2022/05/21 05:03:38;;;;;;;;;;;;;;;11.75;78.83;101968.34;6044468;23;20521;-79
2022/05/21 05:06:05;;;;;;;;;;;;;;;11.79;79.37;101967.50;6043479;23;19935;-77
2022/05/21 05:08:30;;;;;;;;;;;;;;;11.84;78.95;101960.50;6068757;23;19935;-78
2022/05/21 05:10:56;;;;;;;;;;;;;;;11.88;78.87;101967.53;6068687;23;19913;-78
2022/05/21 05:13:21;;;;;;;;;;;;;;;11.93;78.90;101963.16;6045361;23;19914;-79
2022/05/21 05:15:47;;;;;;;;;;;;;;;12.00;78.58;101964.03;6068462;23;19960;-77
2022/05/21 05:18:14;;;;;;;;;;;;;;;12.10;78.79;101963.16;6044610;23;20305;-77
2022/05/21 05:20:40;;;;;;;;;;;;;;;12.18;77.99;101963.16;6067360;23;19984;-77
2022/05/21 05:23:06;;;;;;;;;;;;;;;12.24;78.35;101972.78;6068798;23;19905;-75
2022/05/21 05:25:32;;;;;;;;;;;;;;;12.27;78.35;101973.69;6044633;23;20293;-79
2022/05/21 05:27:57;;;;;;;;;;;;;;;12.34;77.89;101985.06;6068708;23;19913;-76
2022/05/21 05:30:25;;;;;;;;;;;;;;;12.37;77.70;101974.56;6044173;23;20225;-77
2022/05/21 05:32:51;;;;;;;;;;;;;;;12.42;77.81;101978.03;6068859;23;20298;-76
2022/05/21 05:35:16;;;;;;;;;;;;;;;12.56;77.56;101979.78;6067189;23;19952;-77
2022/05/21 05:37:42;;;;;;;;;;;;;;;12.69;76.89;101989.38;6044288;23;19917;-78
2022/05/21 05:40:09;;;;;;;;;;;;;;;12.80;76.92;101984.09;6068474;23;19928;-77
2022/05/21 05:42:35;;;;;;;;;;;;;;;13.00;76.92;101991.91;6068427;23;19920;-79
2022/05/21 05:45:01;;;;;;;;;;;;;;;13.01;76.84;102001.56;6067886;23;20193;-75
2022/05/21 05:47:27;;;;;;;;;;;;;;;12.96;76.31;101996.34;6068050;23;20261;-78
2022/05/21 05:49:53;;;;;;;;;;;;;;;12.96;76.52;101990.22;6041743;23;19941;-78
2022/05/21 05:52:18;;;;;;;;;;;;;;;13.13;76.36;101993.66;6044495;23;19920;-76
2022/05/21 05:54:43;;;;;;;;;;;;;;;13.29;76.70;101998.84;6044108;23;20008;-77
2022/05/21 05:57:12;;;;;;;;;;;;;;;13.33;76.00;101990.94;6044774;23;19988;-79
2022/05/21 05:59:50;;;;;;;;;;;;;;;13.42;75.91;101990.03;6067663;23;19909;-79
2022/05/21 06:05:01;;;;;;;;;;;;;;;13.81;75.53;101989.81;6091283;23;19924;-78
2022/05/21 06:07:27;;;;;;;;;;;;;;;13.86;75.22;101996.78;6067894;23;19932;-76
2022/05/21 06:09:52;;;;;;;;;;;;;;;13.88;74.93;101996.78;6067103;23;20229;-76
2022/05/21 06:12:17;;;;;;;;;;;;;;;13.95;75.18;102005.50;6068913;23;19980;-79
2022/05/21 06:14:45;;;;;;;;;;;;;;;14.21;75.49;102008.81;6067799;23;19956;-79
2022/05/21 06:17:11;;;;;;;;;;;;;;;14.49;74.29;102007.69;6044792;23;19913;-78
2022/05/21 06:19:37;;;;;;;;;;;;;;;14.45;73.22;102006.88;6042624;23;19950;-78
2022/05/21 06:22:03;;;;;;;;;;;;;;;14.39;73.71;102006.91;6068143;23;19913;-78
2022/05/21 06:24:29;;;;;;;;;;;;;;;14.36;74.27;102014.84;6067865;23;19909;-76
2022/05/21 06:26:54;;;;;;;;;;;;;;;14.38;73.09;102024.50;6068793;23;20189;-77
2022/05/21 06:29:20;;;;;;;;;;;;;;;14.40;74.00;102019.22;6068136;23;19917;-77
2022/05/21 06:31:45;;;;;;;;;;;;;;;14.51;74.07;102017.34;6043991;23;19917;-76
2022/05/21 06:34:11;;;;;;;;;;;;;;;15.04;74.61;102017.72;6043483;23;20016;-76
2022/05/21 06:36:38;;;;;;;;;;;;;;;15.54;73.50;102011.78;6067513;23;19987;-78
2022/05/21 06:39:04;;;;;;;;;;;;;;;15.80;71.64;102022.03;6093723;23;19909;-77
2022/05/21 06:41:31;;;;;;;;;;;;;;;16.01;71.88;102022.63;6043530;23;20312;-79
2022/05/21 06:43:56;;;;;;;;;;;;;;;16.45;71.10;102027.16;6043838;23;19937;-78
2022/05/21 06:46:22;;;;;;;;;;;;;;;16.93;70.92;102028.94;6067766;23;19913;-77
2022/05/21 06:48:47;;;;;;;;;;;;;;;17.29;69.72;102031.75;6043054;23;19928;-75
2022/05/21 06:51:12;;;;;;;;;;;;;;;17.70;69.29;102033.53;6066524;23;20222;-76
2022/05/21 06:53:38;;;;;;;;;;;;;;;18.70;67.88;102034.66;6067096;23;20318;-76
2022/05/21 06:56:07;;;;;;;;;;;;;;;20.18;67.94;102039.19;6040783;23;20361;-75
2022/05/21 06:58:32;;;;;;;;;;;;;;;22.13;64.13;102030.25;6067127;23;19913;-75
2022/05/21 07:00:57;;;;;;;;;;;;;;;23.66;62.59;102031.50;6043112;23;20249;-77
2022/05/21 07:03:23;;;;;;;;;;;;;;;24.49;54.94;102037.25;6043972;23;19921;-78
2022/05/21 07:08:33;;;;;;;;;;;;;;;26.08;54.84;102039.38;6071569;23;20015;-78
2022/05/21 07:10:59;;;;;;;;;;;;;;;25.37;51.67;102049.59;6067657;23;19909;-79
2022/05/21 07:13:24;;;;;;;;;;;;;;;23.84;52.13;102046.66;6044164;23;19917;-77
2022/05/21 07:15:50;;;;;;;;;;;;;;;22.86;55.24;102049.41;6066603;23;19921;-78
2022/05/21 07:18:17;;;;;;;;;;;;;;;22.41;55.71;102053.13;6067551;23;19909;-77
2022/05/21 07:20:42;;;;;;;;;;;;;;;22.40;58.34;102056.78;6065724;23;19985;-77
2022/05/21 07:23:08;;;;;;;;;;;;;;;21.89;55.28;102056.13;6066279;23;19916;-75
2022/05/21 07:25:33;;;;;;;;;;;;;;;21.51;57.42;102077.16;6042848;23;20319;-74
2022/05/21 07:27:59;;;;;;;;;;;;;;;20.92;58.05;102071.31;6042571;23;19931;-72
2022/05/21 07:30:24;;;;;;;;;;;;;;;20.76;59.12;102071.84;6066564;23;20333;-73
2022/05/21 07:32:51;;;;;;;;;;;;;;;21.00;58.10;102069.22;6066950;23;19984;-73
2022/05/21 07:35:19;;;;;;;;;;;;;;;20.85;57.59;102077.78;6065217;23;19992;-75
2022/05/21 07:37:44;;;;;;;;;;;;;;;20.42;59.84;102070.31;6067499;23;19917;-71
2022/05/21 07:40:10;;;;;;;;;;;;;;;19.97;59.31;102072.69;6065837;23;19925;-72
2022/05/21 07:42:36;;;;;;;;;;;;;;;19.31;59.21;102080.81;6067256;23;19909;-73
2022/05/21 07:45:02;;;;;;;;;;;;;;;18.73;61.19;102073.50;6043321;23;19927;-73
2022/05/21 07:47:27;;;;;;;;;;;;;;;18.37;60.98;102073.53;6067528;23;20188;-72
2022/05/21 07:49:56;;;;;;;;;;;;;;;18.13;61.31;102077.66;6041951;23;19928;-72
2022/05/21 07:52:21;;;;;;;;;;;;;;;17.83;61.09;102077.44;6067544;23;20004;-74
2022/05/21 07:54:47;;;;;;;;;;;;;;;17.69;61.57;102074.25;6042790;23;20344;-73
2022/05/21 07:57:12;;;;;;;;;;;;;;;17.55;61.16;102078.03;6043903;23;20308;-74
2022/05/21 07:59:38;;;;;;;;;;;;;;;17.30;62.38;102088.28;6067120;23;19932;-72
2022/05/21 08:02:04;;;;;;;;;;;;;;;17.05;62.87;102093.16;6043677;23;20245;-73
2022/05/21 08:04:29;;;;;;;;;;;;;;;16.87;63.57;102084.66;6042218;23;19920;-73
2022/05/21 08:06:54;;;;;;;;;;;;;;;16.63;63.66;102083.31;6067288;23;20233;-73
2022/05/21 08:09:21;;;;;;;;;;;;;;;16.47;64.07;102087.97;6044461;23;19945;-74
2022/05/21 08:11:47;;;;;;;;;;;;;;;16.44;64.80;102090.69;6045689;23;20248;-72
2022/05/21 08:14:12;;;;;;;;;;;;;;;16.42;64.62;102097.75;6044614;23;20293;-75
2022/05/21 08:16:37;;;;;;;;;;;;;;;16.62;65.27;102089.47;6044923;23;19921;-74
2022/05/21 08:19:04;;;;;;;;;;;;;;;17.13;64.62;102094.78;6043909;23;20300;-75
2022/05/21 08:21:30;;;;;;;;;;;;;;;17.72;64.36;102101.53;6045702;23;19952;-73
2022/05/21 08:26:57;;;;;;;;;;;;;;;18.12;61.95;102099.81;6072804;23;19924;-73
2022/05/21 08:29:27;;;;;;;;;;;;;;;17.86;62.97;102100.34;6048285;23;19921;-73
2022/05/21 08:31:53;;;;;;;;;;;;;;;17.56;62.08;102100.13;6069103;23;19996;-72
2022/05/21 08:34:18;;;;;;;;;;;;;;;17.54;62.22;102094.88;6067652;23;19913;-73
2022/05/21 08:36:44;;;;;;;;;;;;;;;18.00;62.85;102085.94;6044801;23;19940;-75
2022/05/21 08:39:09;;;;;;;;;;;;;;;18.50;61.93;102082.97;6045079;23;19984;-72
2022/05/21 08:41:35;;;;;;;;;;;;;;;18.97;60.93;102093.25;6045194;23;19972;-74
2022/05/21 08:44:02;;;;;;;;;;;;;;;19.15;60.24;102094.56;6044945;23;19917;-73
2022/05/21 08:46:37;;;;;;;;;;;;;;;19.22;60.69;102097.91;6068098;23;19924;-73
2022/05/21 08:49:07;;;;;;;;;;;;;;;19.32;59.90;102096.75;6066314;23;19987;-74
2022/05/21 08:51:54;;;;;;;;;;;;;;;19.33;59.39;102105.59;6068361;23;19936;-75
2022/05/21 08:54:25;;;;;;;;;;;;;;;19.72;60.12;102106.22;6068488;23;20183;-75
2022/05/21 08:56:51;;;;;;;;;;;;;;;19.74;58.46;102108.81;6044717;23;19917;-74
2022/05/21 08:59:19;;;;;;;;;;;;;;;19.48;59.21;102096.28;6069092;23;19988;-75
2022/05/21 09:01:44;;;;;;;;;;;;;;;19.21;58.66;102098.84;6069546;23;20007;-75
2022/05/21 09:04:12;;;;;;;;;;;;;;;19.41;58.71;102084.97;6044164;23;20296;-77
2022/05/21 09:07:02;;;;;;;;;;;;;;;20.45;58.01;102095.09;6069288;23;20064;-75
2022/05/21 09:09:47;;;;;;;;;;;;;;;21.02;56.52;102091.38;6069077;23;20001;-75
2022/05/21 09:12:20;;;;;;;;;;;;;;;21.04;55.51;102089.50;6069387;23;20306;-74
2022/05/21 09:14:49;;;;;;;;;;;;;;;21.13;55.69;102095.44;6068739;23;19956;-75
2022/05/21 09:17:19;;;;;;;;;;;;;;;21.33;55.48;102090.25;6067824;23;20236;-77
2022/05/21 09:19:49;;;;;;;;;;;;;;;21.39;54.69;102078.47;6067846;23;19916;-75
2022/05/21 09:22:18;;;;;;;;;;;;;;;21.44;54.93;102076.53;6068541;23;20003;-76
2022/05/21 09:24:49;;;;;;;;;;;;;;;21.52;54.32;102073.56;6068286;23;19936;-73
2022/05/21 09:27:23;;;;;;;;;;;;;;;22.12;54.51;102079.22;6068661;23;20290;-77
2022/05/21 09:29:50;;;;;;;;;;;;;;;22.42;52.53;102087.78;6066852;23;19925;-76
2022/05/21 09:32:19;;;;;;;;;;;;;;;22.58;53.66;102087.16;6068245;23;19909;-75
2022/05/21 09:34:45;;;;;;;;;;;;;;;23.10;52.00;102089.34;6065947;23;19913;-75
2022/05/21 09:37:17;;;;;;;;;;;;;;;23.95;52.06;102082.78;6043462;23;19924;-75
2022/05/21 09:39:43;;;;;;;;;;;;;;;23.83;49.18;102085.09;6068536;23;19965;-76
2022/05/21 09:45:24;;;;;;;;;;;;;;;22.53;51.36;102083.78;6094185;23;19936;-74
2022/05/21 09:47:50;;;;;;;;;;;;;;;22.34;52.04;102084.59;6068917;23;19921;-75
2022/05/21 09:50:20;;;;;;;;;;;;;;;22.31;51.87;102090.00;6066144;23;19952;-78
2022/05/21 09:52:47;;;;;;;;;;;;;;;22.06;51.84;102083.00;6067634;23;19937;-74
2022/05/21 09:55:30;;;;;;;;;;;;;;;21.73;52.67;102093.22;6043946;23;19988;-74
2022/05/21 09:58:09;;;;;;;;;;;;;;;21.21;52.92;102096.03;6044330;23;19964;-80
2022/05/21 10:00:35;;;;;;;;;;;;;;;20.65;51.39;102089.09;6068320;23;19951;-76
2022/05/21 10:03:02;;;;;;;;;;;;;;;20.31;55.79;102088.41;6068702;23;20006;-76
2022/05/21 10:05:30;;;;;;;;;;;;;;;20.23;54.40;102087.81;6067081;23;20377;-77
2022/05/21 10:11:00;;;;;;;;;;;;;;;20.37;54.91;102093.56;6092413;23;19940;-75
2022/05/21 10:13:31;;;;;;;;;;;;;;;20.47;54.78;102103.91;6068489;23;20399;-76
2022/05/21 10:16:00;;;;;;;;;;;;;;;20.42;52.35;102098.72;6062134;23;20008;-77
2022/05/21 10:18:35;;;;;;;;;;;;;;;20.20;53.24;102099.44;6063869;23;19988;-74
2022/05/21 10:21:03;;;;;;;;;;;;;;;19.96;54.23;102097.56;6062322;23;19910;-75
2022/05/21 10:23:44;;;;;;;;;;;;;;;19.79;55.42;102108.72;6063829;23;19945;-77
2022/05/21 10:26:18;;;;;;;;;;;;;;;19.48;54.46;102106.91;6063450;23;20009;-75
2022/05/21 10:29:03;;;;;;;;;;;;;;;19.18;55.67;102109.56;6063489;23;19918;-74
2022/05/21 10:31:36;;;;;;;;;;;;;;;19.30;56.04;102106.53;6063548;23;20186;-77
2022/05/21 10:34:17;;;;;;;;;;;;;;;19.61;56.13;102100.34;6061909;23;19933;-74
2022/05/21 10:37:01;;;;;;;;;;;;;;;19.95;55.74;102090.50;6063500;23;20317;-77
2022/05/21 10:39:49;;;;;;;;;;;;;;;20.37;56.09;102092.69;6062786;23;19914;-74
2022/05/21 10:42:33;;;;;;;;;;;;;;;20.67;54.13;102097.94;6055052;23;20223;-75
2022/05/21 10:44:58;;;;;;;;;;;;;;;20.50;54.63;102103.78;6062941;23;19992;-75
2022/05/21 10:47:26;;;;;;;;;;;;;;;20.28;54.79;102107.16;6063346;23;19952;-76
2022/05/21 10:50:17;;;;;;;;;;;;;;;19.95;53.83;102102.00;6061744;23;19913;-74
2022/05/21 10:52:54;;;;;;;;;;;;;;;19.41;54.68;102111.56;6063107;23;19909;-78
2022/05/21 10:55:27;;;;;;;;;;;;;;;18.92;56.07;102116.44;6063321;23;19917;-74
2022/05/21 10:57:53;;;;;;;;;;;;;;;18.55;56.78;102114.69;6063586;23;19913;-74
2022/05/21 11:00:31;;;;;;;;;;;;;;;18.38;56.49;102107.13;6063044;23;19941;-76
2022/05/21 11:03:15;;;;;;;;;;;;;;;18.33;57.01;102109.03;6062755;23;19916;-76
2022/05/21 11:05:43;;;;;;;;;;;;;;;18.68;57.69;102115.25;6061757;23;20000;-74
2022/05/21 11:08:18;;;;;;;;;;;;;;;19.32;57.44;102123.31;6063329;23;19956;-75
2022/05/21 11:11:01;;;;;;;;;;;;;;;19.70;55.94;102118.66;6062845;23;19917;-79
2022/05/21 11:13:30;;;;;;;;;;;;;;;19.84;55.32;102104.09;6062819;23;19909;-73
2022/05/21 11:16:03;;;;;;;;;;;;;;;19.83;55.48;102113.03;6063286;23;19977;-76
2022/05/21 11:18:31;;;;;;;;;;;;;;;19.80;54.80;102118.44;6062602;23;19910;-77
2022/05/21 11:21:08;;;;;;;;;;;;;;;19.67;54.79;102121.44;6063460;23;19916;-77
2022/05/21 11:23:46;;;;;;;;;;;;;;;19.65;55.38;102128.59;6062488;23;19920;-75
2022/05/21 11:26:38;;;;;;;;;;;;;;;19.91;55.65;102129.59;6063342;23;20317;-77
2022/05/21 11:29:36;;;;;;;;;;;;;;;20.21;54.86;102119.81;6040278;23;19922;-73
2022/05/21 11:37:38;;;;;;;;;;;;;;;20.83;53.51;102116.91;6065403;23;19981;-77
2022/05/21 11:40:04;;;;;;;;;;;;;;;20.96;52.63;102123.56;6063885;23;19964;-75
2022/05/21 11:42:31;;;;;;;;;;;;;;;21.08;53.15;102108.94;6040014;23;19996;-76
2022/05/21 11:45:08;;;;;;;;;;;;;;;21.18;53.10;102113.00;6063368;23;19909;-75
2022/05/21 11:47:42;;;;;;;;;;;;;;;21.20;53.00;102115.63;6063142;23;20574;-75
2022/05/21 11:50:28;;;;;;;;;;;;;;;21.14;53.16;102107.84;6062634;23;19925;-75
2022/05/21 11:52:58;;;;;;;;;;;;;;;21.16;53.31;102111.31;6063044;23;19910;-75
2022/05/21 11:55:25;;;;;;;;;;;;;;;20.93;52.62;102113.00;6063849;23;19913;-76
2022/05/21 11:57:53;;;;;;;;;;;;;;;20.65;53.24;102103.28;6063651;23;20009;-77
2022/05/21 12:00:18;;;;;;;;;;;;;;;20.36;52.78;102113.13;6063614;23;19913;-78
2022/05/21 12:03:05;;;;;;;;;;;;;;;20.07;53.43;102100.75;6063876;23;19933;-75
2022/05/21 12:05:45;;;;;;;;;;;;;;;19.92;53.65;102109.22;6063318;23;19993;-76
2022/05/21 12:08:11;;;;;;;;;;;;;;;20.00;53.15;102104.53;6064007;23;20009;-75
2022/05/21 12:10:53;;;;;;;;;;;;;;;20.24;54.79;102095.75;6063617;23;20362;-78
2022/05/21 12:13:21;;;;;;;;;;;;;;;20.50;54.32;102094.03;6063919;23;19909;-76
2022/05/21 12:15:51;;;;;;;;;;;;;;;20.88;53.44;102096.31;6063574;23;19960;-77
2022/05/21 12:18:38;;;;;;;;;;;;;;;21.14;52.26;102091.84;6063623;23;19910;-75
2022/05/21 12:21:05;;;;;;;;;;;;;;;21.06;51.64;102087.69;6063025;23;19918;-73
2022/05/21 12:23:34;;;;;;;;;;;;;;;20.85;51.64;102091.09;6039718;23;20402;-79
2022/05/21 12:26:08;;;;;;;;;;;;;;;20.64;53.15;102090.88;6062969;23;20045;-74
2022/05/21 12:28:51;;;;;;;;;;;;;;;20.49;52.77;102092.28;6063160;23;19905;-81
2022/05/21 12:31:39;;;;;;;;;;;;;;;20.38;52.76;102095.28;6063873;23;19980;-74
2022/05/21 12:34:05;;;;;;;;;;;;;;;20.21;53.77;102089.66;6054151;23;19933;-80
2022/05/21 12:36:46;;;;;;;;;;;;;;;20.21;52.87;102095.88;6062583;23;19905;-75
2022/05/21 12:39:15;;;;;;;;;;;;;;;20.59;51.36;102087.53;6063022;23;20001;-80
2022/05/21 12:41:44;;;;;;;;;;;;;;;20.87;52.83;102086.59;6063798;23;19917;-75
2022/05/21 12:44:11;;;;;;;;;;;;;;;21.23;51.64;102084.41;6063206;23;20277;-74
2022/05/21 12:46:39;;;;;;;;;;;;;;;21.55;52.08;102085.00;6060721;23;20343;-74
2022/05/21 12:49:09;;;;;;;;;;;;;;;21.80;50.67;102084.91;6061972;23;19913;-78
2022/05/21 12:51:42;;;;;;;;;;;;;;;22.01;48.79;102077.00;6063073;23;20333;-75
2022/05/21 12:54:20;;;;;;;;;;;;;;;21.87;50.99;102087.38;6063198;23;19910;-81
2022/05/21 12:56:46;;;;;;;;;;;;;;;21.65;50.70;102095.31;6065028;23;19960;-74
2022/05/21 12:59:16;;;;;;;;;;;;;;;21.50;50.41;102097.59;6065196;23;20310;-75
2022/05/21 13:01:51;;;;;;;;;;;;;;;21.40;50.40;102091.75;6065346;23;20356;-75
2022/05/21 13:04:23;;;;;;;;;;;;;;;21.58;48.75;102086.69;6064360;23;19941;-75
2022/05/21 13:06:51;;;;;;;;;;;;;;;21.72;49.90;102087.03;6064893;23;19917;-75
2022/05/21 13:09:17;;;;;;;;;;;;;;;21.90;49.35;102076.56;6064369;23;19924;-73
2022/05/21 13:11:43;;;;;;;;;;;;;;;21.96;50.02;102087.84;6041028;23;19913;-76
2022/05/21 13:14:10;;;;;;;;;;;;;;;21.78;47.74;102084.13;6064749;23;19913;-78
2022/05/21 13:16:46;;;;;;;;;;;;;;;21.59;48.83;102093.75;6064076;23;19925;-75